createdAt,value
2023-05-07T00:00:34.985Z,6.70
2023-05-07T00:03:21.362Z,7.60
2023-05-07T00:05:49.460Z,7.50
2023-05-07T00:08:17.327Z,7.00
2023-05-07T00:10:45.760Z,6.50
2023-05-07T00:13:13.782Z,6.30
2023-05-07T00:15:41.686Z,6.60
2023-05-07T00:18:09.593Z,6.50
2023-05-07T00:20:37.546Z,6.30
2023-05-07T00:23:05.585Z,6.70
2023-05-07T00:25:35.703Z,6.10
2023-05-07T00:28:04.967Z,6.90
2023-05-07T00:30:33.365Z,6.30
2023-05-07T00:33:01.756Z,7.50
2023-05-07T00:35:30.930Z,7.00
2023-05-07T00:37:59.179Z,5.80
2023-05-07T00:40:29.959Z,6.40
2023-05-07T00:43:01.819Z,6.10
2023-05-07T00:45:30.736Z,6.60
2023-05-07T00:48:02.082Z,7.30
2023-05-07T00:50:30.863Z,6.50
2023-05-07T00:52:59.662Z,6.20
2023-05-07T00:55:27.686Z,6.20
2023-05-07T00:57:55.671Z,5.70
2023-05-07T01:00:23.554Z,5.70
2023-05-07T01:02:52.125Z,6.60
2023-05-07T01:05:21.586Z,6.60
2023-05-07T01:07:50.949Z,6.20
2023-05-07T01:10:19.021Z,5.40
2023-05-07T01:12:48.285Z,6.00
2023-05-07T01:15:16.339Z,7.20
2023-05-07T01:17:44.512Z,6.20
2023-05-07T01:20:13.054Z,6.60
2023-05-07T01:22:41.767Z,5.80
2023-05-07T01:25:09.710Z,6.50
2023-05-07T01:27:38.279Z,6.30
2023-05-07T01:30:07.128Z,5.70
2023-05-07T01:32:53.535Z,6.00
2023-05-07T01:35:27.035Z,5.90
2023-05-07T01:37:55.546Z,5.50
2023-05-07T01:40:24.393Z,6.20
2023-05-07T01:42:52.276Z,5.90
2023-05-07T01:45:20.121Z,6.20
2023-05-07T01:47:48.134Z,5.20
2023-05-07T01:50:17.417Z,5.30
2023-05-07T01:52:45.283Z,5.70
2023-05-07T01:55:13.721Z,5.70
2023-05-07T01:57:42.139Z,5.90
2023-05-07T02:00:10.775Z,5.10
2023-05-07T02:02:39.686Z,5.10
2023-05-07T02:05:08.182Z,5.70
2023-05-07T02:07:36.005Z,5.20
2023-05-07T02:10:04.246Z,5.30
2023-05-07T02:12:32.268Z,5.20
2023-05-07T02:15:00.229Z,5.10
2023-05-07T02:17:28.367Z,5.40
2023-05-07T02:19:56.127Z,4.90
2023-05-07T02:22:24.082Z,5.10
2023-05-07T02:24:51.957Z,5.30
2023-05-07T02:27:19.820Z,5.40
2023-05-07T02:29:47.622Z,5.40
2023-05-07T02:32:15.643Z,5.00
2023-05-07T02:34:43.582Z,4.90
2023-05-07T02:37:11.536Z,5.40
2023-05-07T02:39:39.347Z,5.30
2023-05-07T02:42:07.230Z,5.50
2023-05-07T02:44:36.650Z,5.40
2023-05-07T02:47:05.222Z,5.40
2023-05-07T02:49:33.068Z,5.10
2023-05-07T02:52:00.908Z,4.50
2023-05-07T02:54:28.700Z,5.50
2023-05-07T02:56:57.404Z,5.70
2023-05-07T02:59:27.248Z,5.40
2023-05-07T03:01:55.268Z,6.00
2023-05-07T03:04:23.299Z,5.60
2023-05-07T03:06:51.105Z,6.00
2023-05-07T03:09:19.026Z,6.40
2023-05-07T03:11:46.917Z,5.80
2023-05-07T03:14:14.709Z,5.20
2023-05-07T03:16:42.605Z,5.10
2023-05-07T03:19:10.601Z,5.90
2023-05-07T03:21:38.369Z,5.90
2023-05-07T03:24:06.813Z,5.40
2023-05-07T03:26:34.680Z,5.90
2023-05-07T03:29:02.819Z,6.20
2023-05-07T03:31:31.070Z,6.70
2023-05-07T03:33:59.007Z,7.20
2023-05-07T03:36:28.498Z,6.40
2023-05-07T03:38:56.403Z,6.50
2023-05-07T03:41:24.212Z,8.60
2023-05-07T03:43:52.016Z,7.90
2023-05-07T03:46:19.860Z,9.00
2023-05-07T03:48:47.712Z,10.00
2023-05-07T03:51:15.645Z,10.90
2023-05-07T03:53:43.724Z,8.00
2023-05-07T03:56:11.525Z,7.80
2023-05-07T03:58:39.276Z,8.30
2023-05-07T04:01:08.469Z,8.90
2023-05-07T04:03:36.512Z,8.30
2023-05-07T04:06:04.546Z,7.30
2023-05-07T04:08:32.493Z,10.10
2023-05-07T04:11:01.312Z,8.70
2023-05-07T04:13:30.827Z,8.20
2023-05-07T04:15:58.837Z,8.50
2023-05-07T04:18:26.748Z,8.50
2023-05-07T04:20:54.638Z,8.40
2023-05-07T04:23:22.970Z,8.10
2023-05-07T04:25:51.927Z,9.00
2023-05-07T04:28:19.794Z,9.60
2023-05-07T04:30:47.605Z,9.70
2023-05-07T04:33:18.568Z,9.70
2023-05-07T04:35:47.246Z,9.20
2023-05-07T04:38:15.198Z,9.20
2023-05-07T04:40:43.641Z,9.00
2023-05-07T04:43:11.549Z,9.50
2023-05-07T04:45:42.273Z,9.60
2023-05-07T04:48:10.924Z,8.70
2023-05-07T04:50:39.524Z,10.10
2023-05-07T04:53:07.391Z,9.80
2023-05-07T04:55:35.188Z,9.10
2023-05-07T04:58:03.042Z,9.00
2023-05-07T05:00:30.838Z,8.60
2023-05-07T05:02:58.787Z,7.80
2023-05-07T05:05:26.793Z,7.60
2023-05-07T05:07:54.665Z,6.90
2023-05-07T05:10:24.627Z,6.80
2023-05-07T05:12:53.155Z,5.70
2023-05-07T05:15:21.160Z,5.40
2023-05-07T05:17:49.251Z,5.30
2023-05-07T05:20:19.993Z,6.10
2023-05-07T05:22:47.996Z,5.80
2023-05-07T05:25:16.179Z,5.60
2023-05-07T05:27:44.051Z,5.20
2023-05-07T05:30:13.098Z,5.50
2023-05-07T05:32:41.213Z,5.50
2023-05-07T05:35:09.695Z,6.00
2023-05-07T05:37:37.569Z,5.70
2023-05-07T05:40:06.231Z,5.60
2023-05-07T05:42:34.045Z,5.00
2023-05-07T05:45:01.908Z,4.80
2023-05-07T05:47:30.708Z,5.10
2023-05-07T05:49:58.702Z,4.80
2023-05-07T05:52:26.696Z,4.70
2023-05-07T05:54:54.861Z,5.00
2023-05-07T05:57:22.755Z,4.90
2023-05-07T05:59:54.889Z,4.80
2023-05-07T06:02:22.884Z,4.30
2023-05-07T06:04:51.177Z,4.50
2023-05-07T06:07:19.083Z,4.50
2023-05-07T06:09:47.087Z,4.20
2023-05-07T06:12:14.916Z,3.80
2023-05-07T06:14:44.850Z,3.90
2023-05-07T06:17:12.797Z,3.60
2023-05-07T06:19:40.858Z,3.40
2023-05-07T06:22:08.723Z,3.50
2023-05-07T06:24:36.743Z,3.90
2023-05-07T06:27:04.775Z,3.60
2023-05-07T06:29:34.504Z,3.40
2023-05-07T06:32:13.895Z,3.50
2023-05-07T06:34:42.257Z,3.20
2023-05-07T06:37:10.257Z,2.70
2023-05-07T06:39:38.184Z,2.80
2023-05-07T06:42:06.920Z,2.60
2023-05-07T06:44:34.763Z,3.00
2023-05-07T06:47:04.548Z,2.70
2023-05-07T06:49:32.507Z,3.00
2023-05-07T06:52:00.746Z,3.20
2023-05-07T06:54:28.658Z,3.00
2023-05-07T06:56:56.585Z,5.20
2023-05-07T06:59:25.137Z,4.20
2023-05-07T07:01:53.019Z,10.80
2023-05-07T07:04:20.901Z,4.00
2023-05-07T07:06:48.708Z,3.20
2023-05-07T07:09:16.486Z,2.80
2023-05-07T07:11:44.258Z,2.70
2023-05-07T07:14:12.144Z,2.50
2023-05-07T07:16:39.977Z,2.50
2023-05-07T07:19:08.080Z,5.30
2023-05-07T07:21:35.954Z,3.80
2023-05-07T07:24:04.098Z,2.80
2023-05-07T07:26:32.386Z,2.60
2023-05-07T07:29:00.339Z,2.40
2023-05-07T07:31:28.312Z,2.50
2023-05-07T07:33:56.379Z,3.40
2023-05-07T07:36:29.508Z,2.70
2023-05-07T07:39:06.521Z,3.10
2023-05-07T07:41:34.337Z,2.20
2023-05-07T07:44:02.207Z,3.00
2023-05-07T07:46:30.148Z,3.10
2023-05-07T07:49:00.013Z,3.00
2023-05-07T07:51:27.841Z,3.20
2023-05-07T07:53:55.903Z,3.00
2023-05-07T07:56:23.737Z,2.70
2023-05-07T07:58:51.599Z,3.20
2023-05-07T08:01:19.415Z,2.60
2023-05-07T08:03:47.524Z,3.20
2023-05-07T08:06:15.575Z,2.70
2023-05-07T08:08:43.372Z,2.70
2023-05-07T08:11:11.374Z,2.70
2023-05-07T08:13:39.854Z,3.50
2023-05-07T08:16:07.952Z,2.70
2023-05-07T08:18:35.781Z,3.00
2023-05-07T08:21:04.059Z,2.70
2023-05-07T08:23:32.837Z,2.40
2023-05-07T08:26:00.791Z,3.10
2023-05-07T08:28:28.811Z,3.00
2023-05-07T08:30:57.848Z,2.90
2023-05-07T08:33:25.782Z,2.90
2023-05-07T08:35:53.654Z,2.80
2023-05-07T08:38:21.454Z,2.40
2023-05-07T08:40:49.319Z,2.80
2023-05-07T08:43:18.006Z,2.70
2023-05-07T08:45:47.109Z,2.90
2023-05-07T08:48:18.814Z,2.40
2023-05-07T08:50:46.871Z,2.30
2023-05-07T08:53:17.148Z,2.30
2023-05-07T08:55:44.932Z,2.10
2023-05-07T08:58:12.845Z,3.20
2023-05-07T09:00:41.676Z,2.20
2023-05-07T09:03:09.963Z,2.70
2023-05-07T09:05:37.932Z,3.10
2023-05-07T09:08:08.032Z,2.30
2023-05-07T09:10:36.246Z,2.40
2023-05-07T09:13:04.463Z,2.00
2023-05-07T09:15:32.464Z,2.20
2023-05-07T09:18:04.516Z,2.30
2023-05-07T09:20:32.980Z,2.20
2023-05-07T09:23:00.953Z,2.30
2023-05-07T09:25:36.230Z,2.50
2023-05-07T09:28:07.271Z,2.10
2023-05-07T09:30:36.140Z,2.50
2023-05-07T09:33:04.834Z,2.30
2023-05-07T09:35:32.696Z,2.30
2023-05-07T09:38:04.198Z,2.30
2023-05-07T09:40:32.615Z,2.30
2023-05-07T09:43:14.620Z,2.70
2023-05-07T09:45:42.473Z,3.00
2023-05-07T09:48:11.401Z,2.40
2023-05-07T09:50:50.983Z,2.50
2023-05-07T09:53:18.851Z,2.40
2023-05-07T09:55:47.163Z,2.60
2023-05-07T09:58:15.894Z,3.50
2023-05-07T10:00:43.927Z,2.60
2023-05-07T10:03:13.910Z,2.90
2023-05-07T10:05:43.494Z,3.40
2023-05-07T10:08:11.732Z,3.50
2023-05-07T10:10:39.690Z,3.30
2023-05-07T10:13:11.746Z,2.20
2023-05-07T10:15:39.648Z,3.70
2023-05-07T10:18:07.847Z,2.30
2023-05-07T10:20:37.573Z,3.20
2023-05-07T10:23:07.037Z,4.10
2023-05-07T10:25:35.544Z,6.30
2023-05-07T10:28:09.927Z,3.90
2023-05-07T10:30:55.005Z,2.50
2023-05-07T10:33:28.514Z,3.40
2023-05-07T10:36:00.407Z,2.70
2023-05-07T10:38:29.150Z,2.40
2023-05-07T10:40:56.965Z,2.60
2023-05-07T10:43:24.952Z,2.40
2023-05-07T10:46:13.244Z,3.10
2023-05-07T10:49:07.394Z,2.40
2023-05-07T10:51:36.762Z,2.60
2023-05-07T10:54:10.872Z,2.50
2023-05-07T10:56:46.942Z,2.80
2023-05-07T10:59:24.770Z,2.50
2023-05-07T11:02:00.214Z,2.70
2023-05-07T11:04:28.803Z,2.40
2023-05-07T11:07:12.329Z,2.10
2023-05-07T11:09:56.829Z,2.10
2023-05-07T11:12:54.867Z,2.40
2023-05-07T11:15:45.234Z,3.20
2023-05-07T11:18:16.147Z,2.20
2023-05-07T11:20:56.089Z,2.60
2023-05-07T11:23:35.965Z,2.10
2023-05-07T11:26:05.333Z,5.10
2023-05-07T11:28:42.181Z,2.30
2023-05-07T11:31:11.065Z,2.00
2023-05-07T11:33:39.353Z,2.60
2023-05-07T11:36:09.140Z,2.20
2023-05-07T11:38:38.736Z,2.20
2023-05-07T11:41:06.796Z,2.20
2023-05-07T11:43:36.913Z,2.40
2023-05-07T11:46:13.420Z,2.20
2023-05-07T11:48:42.430Z,1.90
2023-05-07T11:51:12.353Z,2.20
2023-05-07T11:53:42.586Z,1.90
2023-05-07T11:56:16.937Z,2.40
2023-05-07T11:58:46.473Z,2.30
2023-05-07T12:01:16.713Z,2.00
2023-05-07T12:03:48.826Z,1.80
2023-05-07T12:06:20.916Z,2.30
2023-05-07T12:08:49.076Z,2.10
2023-05-07T12:11:23.951Z,1.90
2023-05-07T12:13:52.029Z,1.80
2023-05-07T12:16:20.583Z,1.80
2023-05-07T12:18:56.145Z,2.30
2023-05-07T12:21:24.512Z,2.50
2023-05-07T12:23:52.349Z,2.30
2023-05-07T12:26:22.088Z,2.00
2023-05-07T12:28:49.928Z,1.60
2023-05-07T12:31:18.734Z,1.70
2023-05-07T12:33:46.891Z,2.00
2023-05-07T12:36:15.317Z,1.60
2023-05-07T12:38:43.221Z,1.70
2023-05-07T12:41:13.416Z,1.90
2023-05-07T12:43:45.037Z,1.80
2023-05-07T12:46:14.732Z,1.80
2023-05-07T12:48:48.419Z,1.70
2023-05-07T12:51:17.003Z,2.10
2023-05-07T12:53:44.916Z,2.10
2023-05-07T12:56:12.714Z,2.60
2023-05-07T12:58:42.043Z,2.10
2023-05-07T13:01:11.098Z,2.60
2023-05-07T13:03:39.905Z,2.40
2023-05-07T13:06:11.674Z,2.10
2023-05-07T13:08:44.223Z,1.90
2023-05-07T13:11:13.080Z,2.40
2023-05-07T13:13:42.223Z,2.50
2023-05-07T13:16:12.289Z,2.20
2023-05-07T13:18:41.876Z,2.70
2023-05-07T13:21:11.168Z,2.70
2023-05-07T13:23:39.715Z,1.80
2023-05-07T13:26:22.534Z,2.60
2023-05-07T13:28:55.653Z,2.90
2023-05-07T13:31:23.740Z,1.90
2023-05-07T13:33:51.872Z,2.80
2023-05-07T13:36:19.811Z,2.90
2023-05-07T13:38:47.766Z,2.60
2023-05-07T13:41:15.872Z,2.40
2023-05-07T13:43:43.656Z,2.60
2023-05-07T13:46:11.513Z,2.40
2023-05-07T13:48:39.540Z,2.90
2023-05-07T13:51:07.525Z,2.80
2023-05-07T13:53:36.250Z,2.80
2023-05-07T13:56:06.123Z,2.20
2023-05-07T13:58:34.070Z,2.50
2023-05-07T14:01:02.029Z,2.00
2023-05-07T14:03:30.921Z,2.00
2023-05-07T14:06:00.868Z,2.80
2023-05-07T14:08:31.719Z,3.20
2023-05-07T14:10:59.843Z,3.30
2023-05-07T14:13:28.552Z,3.10
2023-05-07T14:15:56.838Z,2.30
2023-05-07T14:18:24.840Z,2.70
2023-05-07T14:20:52.786Z,2.90
2023-05-07T14:23:21.878Z,3.10
2023-05-07T14:25:49.899Z,3.30
2023-05-07T14:28:17.959Z,2.50
2023-05-07T14:30:46.304Z,2.50
2023-05-07T14:33:14.216Z,2.90
2023-05-07T14:35:42.231Z,2.70
2023-05-07T14:38:10.003Z,2.40
2023-05-07T14:40:37.859Z,2.80
2023-05-07T14:43:05.653Z,2.90
2023-05-07T14:45:33.459Z,2.50
2023-05-07T14:48:01.398Z,2.30
2023-05-07T14:50:29.178Z,2.10
2023-05-07T14:52:57.004Z,2.40
2023-05-07T14:55:24.790Z,3.00
2023-05-07T14:57:52.602Z,3.10
2023-05-07T15:00:20.755Z,3.20
2023-05-07T15:02:48.810Z,4.00
2023-05-07T15:05:16.971Z,2.80
2023-05-07T15:07:45.760Z,3.90
2023-05-07T15:10:14.181Z,4.40
2023-05-07T15:12:42.123Z,4.40
2023-05-07T15:15:11.233Z,3.00
2023-05-07T15:17:39.283Z,3.40
2023-05-07T15:20:10.089Z,4.00
2023-05-07T15:22:38.153Z,3.70
2023-05-07T15:25:06.717Z,12.20
2023-05-07T15:27:34.665Z,10.50
2023-05-07T15:30:02.593Z,6.80
2023-05-07T15:32:30.893Z,6.50
2023-05-07T15:34:58.712Z,6.10
2023-05-07T15:37:29.416Z,3.90
2023-05-07T15:39:57.304Z,6.40
2023-05-07T15:42:25.343Z,7.60
2023-05-07T15:44:53.466Z,5.70
2023-05-07T15:47:22.189Z,8.10
2023-05-07T15:49:56.944Z,8.00
2023-05-07T15:52:25.129Z,32.60
2023-05-07T15:54:53.051Z,7.90
2023-05-07T15:57:21.637Z,3.80
2023-05-07T15:59:49.507Z,3.70
2023-05-07T16:02:17.526Z,7.20
2023-05-07T16:04:45.406Z,3.90
2023-05-07T16:07:13.280Z,2.60
2023-05-07T16:09:41.362Z,3.20
2023-05-07T16:12:09.129Z,3.10
2023-05-07T16:14:36.994Z,2.40
2023-05-07T16:17:04.916Z,2.30
2023-05-07T16:19:32.844Z,5.40
2023-05-07T16:22:00.707Z,3.90
2023-05-07T16:24:28.649Z,6.50
2023-05-07T16:26:56.551Z,5.00
2023-05-07T16:29:24.481Z,5.40
2023-05-07T16:31:54.230Z,5.70
2023-05-07T16:34:23.377Z,5.30
2023-05-07T16:36:51.288Z,4.50
2023-05-07T16:39:19.375Z,4.70
2023-05-07T16:41:48.855Z,3.50
2023-05-07T16:44:17.909Z,3.80
2023-05-07T16:46:45.886Z,7.50
2023-05-07T16:49:13.732Z,4.50
2023-05-07T16:51:43.394Z,3.60
2023-05-07T16:54:11.326Z,3.10
2023-05-07T16:56:39.167Z,12.00
2023-05-07T16:59:07.408Z,5.90
2023-05-07T17:01:35.641Z,6.70
2023-05-07T17:04:03.644Z,3.30
2023-05-07T17:06:31.760Z,5.80
2023-05-07T17:08:59.871Z,3.30
2023-05-07T17:11:31.071Z,4.10
2023-05-07T17:13:59.087Z,3.00
2023-05-07T17:16:27.281Z,3.30
2023-05-07T17:18:55.193Z,2.70
2023-05-07T17:21:23.146Z,2.50
2023-05-07T17:23:51.024Z,3.30
2023-05-07T17:26:18.989Z,2.30
2023-05-07T17:28:47.178Z,5.90
2023-05-07T17:31:15.291Z,4.90
2023-05-07T17:33:43.266Z,4.70
2023-05-07T17:36:11.185Z,4.00
2023-05-07T17:38:39.122Z,3.60
2023-05-07T17:41:07.162Z,3.80
2023-05-07T17:43:34.959Z,3.10
2023-05-07T17:46:03.497Z,3.30
2023-05-07T17:48:31.727Z,3.90
2023-05-07T17:51:03.973Z,3.90
2023-05-07T17:53:32.376Z,5.70
2023-05-07T17:56:00.413Z,6.10
2023-05-07T17:58:28.289Z,7.50
2023-05-07T18:00:56.393Z,7.70
2023-05-07T18:03:27.988Z,8.80
2023-05-07T18:05:56.015Z,10.00
2023-05-07T18:08:23.949Z,10.80
2023-05-07T18:10:52.419Z,12.10
2023-05-07T18:13:20.684Z,14.90
2023-05-07T18:15:48.850Z,14.90
2023-05-07T18:18:16.752Z,11.70
2023-05-07T18:20:50.943Z,12.00
2023-05-07T18:23:21.438Z,11.80
2023-05-07T18:25:49.420Z,13.70
2023-05-07T18:28:17.332Z,14.70
2023-05-07T18:30:45.396Z,13.40
2023-05-07T18:33:13.576Z,8.10
2023-05-07T18:35:41.520Z,4.70
2023-05-07T18:38:11.119Z,4.50
2023-05-07T18:40:44.036Z,5.80
2023-05-07T18:43:12.052Z,7.40
2023-05-07T18:45:39.923Z,7.20
2023-05-07T18:48:07.828Z,8.00
2023-05-07T18:50:35.797Z,7.70
2023-05-07T18:53:04.184Z,8.40
2023-05-07T18:55:32.098Z,8.10
2023-05-07T18:57:59.901Z,8.60
2023-05-07T19:00:27.724Z,8.20
2023-05-07T19:02:56.189Z,8.10
2023-05-07T19:05:26.000Z,8.50
2023-05-07T19:07:53.882Z,9.30
2023-05-07T19:10:21.980Z,8.00
2023-05-07T19:12:55.358Z,8.70
2023-05-07T19:15:23.636Z,10.20
2023-05-07T19:17:51.965Z,10.50
2023-05-07T19:20:20.511Z,9.00
2023-05-07T19:22:48.433Z,7.90
2023-05-07T19:25:18.163Z,6.60
2023-05-07T19:27:47.552Z,6.30
2023-05-07T19:30:15.473Z,7.20
2023-05-07T19:32:43.562Z,5.70
2023-05-07T19:35:11.743Z,7.00
2023-05-07T19:37:39.841Z,7.40
2023-05-07T19:40:09.507Z,7.00
2023-05-07T19:42:37.491Z,7.20
2023-05-07T19:45:06.022Z,6.50
2023-05-07T19:47:33.951Z,6.70
2023-05-07T19:50:02.001Z,9.80
2023-05-07T19:52:29.933Z,12.10
2023-05-07T19:54:57.945Z,12.50
2023-05-07T19:57:27.247Z,11.90
2023-05-07T19:59:55.217Z,10.80
2023-05-07T20:02:23.435Z,12.40
2023-05-07T20:04:51.522Z,11.00
2023-05-07T20:07:19.412Z,11.30
2023-05-07T20:09:47.423Z,10.30
2023-05-07T20:12:15.379Z,9.40
2023-05-07T20:14:46.130Z,11.90
2023-05-07T20:17:14.369Z,11.10
2023-05-07T20:19:42.328Z,11.80
2023-05-07T20:22:10.214Z,12.60
2023-05-07T20:24:41.790Z,11.10
2023-05-07T20:27:09.694Z,11.60
2023-05-07T20:29:39.959Z,15.40
2023-05-07T20:32:07.968Z,14.00
2023-05-07T20:34:35.961Z,15.60
2023-05-07T20:37:06.398Z,15.00
2023-05-07T20:39:34.264Z,31.30
2023-05-07T20:42:02.072Z,71.80
2023-05-07T20:44:35.955Z,92.20
2023-05-07T20:47:04.767Z,146.40
2023-05-07T20:49:33.061Z,118.90
2023-05-07T20:52:00.837Z,91.60
2023-05-07T20:54:29.031Z,70.60
2023-05-07T20:56:58.030Z,55.50
2023-05-07T20:59:26.216Z,47.30
2023-05-07T21:01:54.524Z,32.80
2023-05-07T21:04:22.739Z,22.30
2023-05-07T21:06:50.624Z,18.20
2023-05-07T21:09:19.223Z,15.80
2023-05-07T21:11:47.111Z,14.50
2023-05-07T21:14:14.905Z,14.50
2023-05-07T21:16:43.557Z,14.70
2023-05-07T21:19:12.437Z,14.00
2023-05-07T21:21:42.486Z,14.60
2023-05-07T21:24:11.220Z,13.30
2023-05-07T21:26:39.079Z,13.50
2023-05-07T21:29:09.012Z,16.80
2023-05-07T21:31:36.887Z,18.40
2023-05-07T21:34:07.785Z,19.70
2023-05-07T21:36:36.019Z,23.60
2023-05-07T21:39:04.705Z,24.50
2023-05-07T21:41:32.582Z,25.20
2023-05-07T21:44:00.686Z,24.40
2023-05-07T21:46:28.501Z,24.20
2023-05-07T21:48:56.546Z,22.80
2023-05-07T21:51:24.612Z,23.40
2023-05-07T21:53:52.495Z,22.90
2023-05-07T21:56:20.547Z,23.60
2023-05-07T21:58:48.691Z,23.80
2023-05-07T22:01:16.561Z,24.10
2023-05-07T22:03:44.596Z,24.60
2023-05-07T22:06:12.699Z,27.20
2023-05-07T22:08:40.439Z,30.80
2023-05-07T22:11:08.607Z,36.40
2023-05-07T22:13:36.637Z,37.00
2023-05-07T22:16:05.110Z,38.70
2023-05-07T22:18:33.073Z,39.60
2023-05-07T22:21:00.983Z,40.60
2023-05-07T22:23:28.836Z,44.80
2023-05-07T22:25:56.641Z,41.40
2023-05-07T22:28:24.494Z,40.30
2023-05-07T22:30:52.334Z,36.50
2023-05-07T22:33:20.117Z,33.30
2023-05-07T22:35:47.890Z,30.50
2023-05-07T22:38:15.798Z,27.50
2023-05-07T22:40:43.632Z,26.10
2023-05-07T22:43:11.571Z,30.40
2023-05-07T22:45:39.577Z,32.90
2023-05-07T22:48:07.548Z,34.00
2023-05-07T22:50:39.047Z,35.00
2023-05-07T22:53:07.185Z,35.90
2023-05-07T22:55:35.473Z,34.50
2023-05-07T22:58:03.340Z,35.90
2023-05-07T23:00:31.367Z,37.40
2023-05-07T23:02:59.215Z,35.10
2023-05-07T23:05:27.136Z,38.60
2023-05-07T23:07:54.963Z,39.60
2023-05-07T23:10:22.908Z,31.90
2023-05-07T23:12:51.688Z,28.70
2023-05-07T23:15:20.182Z,25.90
2023-05-07T23:17:48.778Z,26.60
2023-05-07T23:20:16.971Z,24.30
2023-05-07T23:22:44.810Z,26.40
2023-05-07T23:25:12.639Z,25.70
2023-05-07T23:27:40.407Z,25.50
2023-05-07T23:30:11.986Z,33.20
2023-05-07T23:32:40.100Z,27.60
2023-05-07T23:35:08.964Z,28.40
2023-05-07T23:37:37.654Z,27.40
2023-05-07T23:40:06.601Z,29.40
2023-05-07T23:42:35.490Z,30.60
2023-05-07T23:45:03.975Z,29.90
2023-05-07T23:47:31.841Z,29.20
2023-05-07T23:49:59.793Z,25.10
2023-05-07T23:52:27.679Z,20.50
2023-05-07T23:54:55.457Z,20.20
2023-05-07T23:57:23.255Z,19.80
2023-05-07T23:59:51.111Z,20.50
